sensor_id;sensor_type;location;lat;lon;timestamp;pressure;altitude;pressure_sealevel;temperature;humidity
57574;BME280;68988;49.000;21.242;2023-06-22T00:02:13;98754.88;;;26.92;52.45
57574;BME280;68988;49.000;21.242;2023-06-22T00:04:39;98746.22;;;26.95;52.74
57574;BME280;68988;49.000;21.242;2023-06-22T00:07:04;98754.88;;;26.92;52.98
57574;BME280;68988;49.000;21.242;2023-06-22T00:09:31;98747.63;;;26.93;52.87
57574;BME280;68988;49.000;21.242;2023-06-22T00:11:56;98762.94;;;26.92;52.93
57574;BME280;68988;49.000;21.242;2023-06-22T00:14:21;98766.16;;;26.94;52.69
57574;BME280;68988;49.000;21.242;2023-06-22T00:16:47;98761.34;;;26.91;52.97
57574;BME280;68988;49.000;21.242;2023-06-22T00:19:14;98761.91;;;26.88;52.72
57574;BME280;68988;49.000;21.242;2023-06-22T00:21:39;98760.53;;;26.91;52.80
57574;BME280;68988;49.000;21.242;2023-06-22T00:24:05;98755.22;;;26.86;53.36
57574;BME280;68988;49.000;21.242;2023-06-22T00:26:31;98755.44;;;26.89;53.02
57574;BME280;68988;49.000;21.242;2023-06-22T00:28:56;98753.03;;;26.88;52.58
57574;BME280;68988;49.000;21.242;2023-06-22T00:31:22;98756.81;;;26.87;53.05
57574;BME280;68988;49.000;21.242;2023-06-22T00:33:47;98753.56;;;26.90;53.06
57574;BME280;68988;49.000;21.242;2023-06-22T00:36:12;98747.91;;;26.91;52.92
57574;BME280;68988;49.000;21.242;2023-06-22T00:38:41;98750.59;;;26.91;52.65
57574;BME280;68988;49.000;21.242;2023-06-22T00:41:07;98744.09;;;26.92;52.57
57574;BME280;68988;49.000;21.242;2023-06-22T00:43:32;98747.03;;;26.96;52.40
57574;BME280;68988;49.000;21.242;2023-06-22T00:45:58;98740.63;;;26.92;52.46
57574;BME280;68988;49.000;21.242;2023-06-22T00:48:23;98747.06;;;26.91;52.92
57574;BME280;68988;49.000;21.242;2023-06-22T00:50:49;98742.50;;;26.91;52.86
57574;BME280;68988;49.000;21.242;2023-06-22T00:53:16;98736.03;;;26.92;52.56
57574;BME280;68988;49.000;21.242;2023-06-22T00:55:44;98738.22;;;26.90;52.57
57574;BME280;68988;49.000;21.242;2023-06-22T00:58:12;98735.00;;;26.88;52.79
57574;BME280;68988;49.000;21.242;2023-06-22T01:00:40;98738.22;;;26.90;52.99
57574;BME280;68988;49.000;21.242;2023-06-22T01:03:06;98735.22;;;26.92;52.31
57574;BME280;68988;49.000;21.242;2023-06-22T01:05:35;98745.50;;;26.90;52.71
57574;BME280;68988;49.000;21.242;2023-06-22T01:11:03;98744.38;;;26.91;52.64
57574;BME280;68988;49.000;21.242;2023-06-22T01:13:46;98746.22;;;26.95;52.71
57574;BME280;68988;49.000;21.242;2023-06-22T01:16:18;98750.59;;;26.91;52.40
57574;BME280;68988;49.000;21.242;2023-06-22T01:18:46;98751.38;;;26.92;52.48
57574;BME280;68988;49.000;21.242;2023-06-22T01:21:16;98750.88;;;26.90;52.59
57574;BME280;68988;49.000;21.242;2023-06-22T01:23:58;98753.78;;;26.93;52.74
57574;BME280;68988;49.000;21.242;2023-06-22T01:28:55;98763.50;;;26.89;52.45
57574;BME280;68988;49.000;21.242;2023-06-22T01:31:25;98774.81;;;26.91;52.88
57574;BME280;68988;49.000;21.242;2023-06-22T01:33:54;98774.84;;;26.86;52.71
57574;BME280;68988;49.000;21.242;2023-06-22T01:36:21;98783.72;;;26.87;52.68
57574;BME280;68988;49.000;21.242;2023-06-22T01:38:48;98785.88;;;26.85;52.96
57574;BME280;68988;49.000;21.242;2023-06-22T01:41:15;98790.47;;;26.84;52.80
57574;BME280;68988;49.000;21.242;2023-06-22T01:43:41;98777.53;;;26.86;52.85
57574;BME280;68988;49.000;21.242;2023-06-22T01:46:08;98778.63;;;26.85;52.74
57574;BME280;68988;49.000;21.242;2023-06-22T01:48:34;98778.63;;;26.85;52.97
57574;BME280;68988;49.000;21.242;2023-06-22T01:50:59;98784.22;;;26.89;52.58
57574;BME280;68988;49.000;21.242;2023-06-22T01:53:25;98778.84;;;26.89;52.82
57574;BME280;68988;49.000;21.242;2023-06-22T01:55:50;98784.81;;;26.86;52.80
57574;BME280;68988;49.000;21.242;2023-06-22T01:58:16;98793.66;;;26.86;53.07
57574;BME280;68988;49.000;21.242;2023-06-22T02:00:48;98793.38;;;26.88;52.89
57574;BME280;68988;49.000;21.242;2023-06-22T02:03:19;98802.00;;;26.90;52.45
57574;BME280;68988;49.000;21.242;2023-06-22T02:05:50;98807.25;;;27.00;52.12
57574;BME280;68988;49.000;21.242;2023-06-22T02:08:22;98813.84;;;26.89;52.51
57574;BME280;68988;49.000;21.242;2023-06-22T02:10:49;98814.69;;;26.84;52.88
57574;BME280;68988;49.000;21.242;2023-06-22T02:13:16;98809.88;;;26.81;53.07
57574;BME280;68988;49.000;21.242;2023-06-22T02:15:42;98802.84;;;26.85;53.31
57574;BME280;68988;49.000;21.242;2023-06-22T02:18:08;98806.56;;;26.89;52.41
57574;BME280;68988;49.000;21.242;2023-06-22T02:20:37;98815.19;;;26.86;52.55
57574;BME280;68988;49.000;21.242;2023-06-22T02:23:02;98813.31;;;26.87;52.85
57574;BME280;68988;49.000;21.242;2023-06-22T02:25:28;98811.44;;;26.87;52.49
57574;BME280;68988;49.000;21.242;2023-06-22T02:27:53;98812.75;;;26.90;52.89
57574;BME280;68988;49.000;21.242;2023-06-22T02:30:18;98811.94;;;26.89;52.69
57574;BME280;68988;49.000;21.242;2023-06-22T02:32:44;98809.81;;;26.86;52.76
57574;BME280;68988;49.000;21.242;2023-06-22T02:35:09;98818.41;;;26.88;52.88
57574;BME280;68988;49.000;21.242;2023-06-22T02:37:36;98817.31;;;26.89;53.06
57574;BME280;68988;49.000;21.242;2023-06-22T02:40:05;98817.31;;;26.89;52.52
57574;BME280;68988;49.000;21.242;2023-06-22T02:42:32;98812.78;;;26.85;53.10
57574;BME280;68988;49.000;21.242;2023-06-22T02:44:57;98810.34;;;26.88;52.64
57574;BME280;68988;49.000;21.242;2023-06-22T02:47:22;98814.13;;;26.87;52.72
57574;BME280;68988;49.000;21.242;2023-06-22T02:49:48;98814.13;;;26.87;52.71
57574;BME280;68988;49.000;21.242;2023-06-22T02:52:13;98807.38;;;26.90;52.71
57574;BME280;68988;49.000;21.242;2023-06-22T02:54:39;98810.06;;;26.90;52.75
57574;BME280;68988;49.000;21.242;2023-06-22T02:57:04;98819.97;;;26.94;52.78
57574;BME280;68988;49.000;21.242;2023-06-22T02:59:30;98813.56;;;26.90;52.94
57574;BME280;68988;49.000;21.242;2023-06-22T03:01:55;98814.91;;;26.88;52.72
57574;BME280;68988;49.000;21.242;2023-06-22T03:04:21;98811.94;;;26.89;52.46
57574;BME280;68988;49.000;21.242;2023-06-22T03:06:46;98813.84;;;26.89;52.71
57574;BME280;68988;49.000;21.242;2023-06-22T03:09:16;98824.31;;;26.90;52.57
57574;BME280;68988;49.000;21.242;2023-06-22T03:11:42;98825.94;;;26.86;53.15
57574;BME280;68988;49.000;21.242;2023-06-22T03:14:08;98828.66;;;26.86;52.77
57574;BME280;68988;49.000;21.242;2023-06-22T03:16:33;98830.81;;;26.84;53.01
57574;BME280;68988;49.000;21.242;2023-06-22T03:18:59;98832.44;;;26.85;53.11
57574;BME280;68988;49.000;21.242;2023-06-22T03:21:27;98830.25;;;26.87;53.02
57574;BME280;68988;49.000;21.242;2023-06-22T03:23:53;98840.50;;;26.85;52.83
57574;BME280;68988;49.000;21.242;2023-06-22T03:26:19;98843.19;;;26.85;53.23
57574;BME280;68988;49.000;21.242;2023-06-22T03:28:44;98831.34;;;26.86;52.79
57574;BME280;68988;49.000;21.242;2023-06-22T03:31:10;98843.72;;;26.87;52.91
57574;BME280;68988;49.000;21.242;2023-06-22T03:33:35;98848.31;;;26.87;52.93
57574;BME280;68988;49.000;21.242;2023-06-22T03:36:01;98851.00;;;26.87;53.34
57574;BME280;68988;49.000;21.242;2023-06-22T03:38:26;98830.25;;;26.87;52.80
57574;BME280;68988;49.000;21.242;2023-06-22T03:40:51;98835.13;;;26.85;53.12
57574;BME280;68988;49.000;21.242;2023-06-22T03:43:17;98837.25;;;26.88;52.87
57574;BME280;68988;49.000;21.242;2023-06-22T03:45:42;98840.47;;;26.90;52.96
57574;BME280;68988;49.000;21.242;2023-06-22T03:48:10;98838.06;;;26.89;52.85
57574;BME280;68988;49.000;21.242;2023-06-22T03:50:36;98832.91;;;26.92;52.92
57574;BME280;68988;49.000;21.242;2023-06-22T03:53:01;98839.91;;;26.93;52.88
57574;BME280;68988;49.000;21.242;2023-06-22T03:55:26;98842.88;;;26.92;52.93
57574;BME280;68988;49.000;21.242;2023-06-22T03:57:52;98844.16;;;27.00;52.50
57574;BME280;68988;49.000;21.242;2023-06-22T04:00:19;98845.28;;;26.93;52.60
57574;BME280;68988;49.000;21.242;2023-06-22T04:02:44;98858.16;;;26.96;52.43
57574;BME280;68988;49.000;21.242;2023-06-22T04:05:10;98851.66;;;27.03;52.50
57574;BME280;68988;49.000;21.242;2023-06-22T04:07:35;98849.03;;;26.97;52.56
57574;BME280;68988;49.000;21.242;2023-06-22T04:10:05;98860.84;;;26.96;52.64
57574;BME280;68988;49.000;21.242;2023-06-22T04:12:30;98865.44;;;26.96;52.55
57574;BME280;68988;49.000;21.242;2023-06-22T04:14:55;98863.03;;;26.94;52.84
57574;BME280;68988;49.000;21.242;2023-06-22T04:17:21;98870.56;;;26.97;52.46
57574;BME280;68988;49.000;21.242;2023-06-22T04:19:46;98865.44;;;26.96;52.42
57574;BME280;68988;49.000;21.242;2023-06-22T04:22:12;98871.91;;;26.95;52.71
57574;BME280;68988;49.000;21.242;2023-06-22T04:24:38;98871.09;;;26.94;52.86
57574;BME280;68988;49.000;21.242;2023-06-22T04:27:03;98880.22;;;26.98;52.35
57574;BME280;68988;49.000;21.242;2023-06-22T04:29:29;98874.31;;;26.96;52.64
57574;BME280;68988;49.000;21.242;2023-06-22T04:31:58;98878.63;;;26.92;52.45
57574;BME280;68988;49.000;21.242;2023-06-22T04:34:28;98879.09;;;27.05;52.24
57574;BME280;68988;49.000;21.242;2023-06-22T04:36:53;98883.19;;;26.97;52.69
57574;BME280;68988;49.000;21.242;2023-06-22T04:39:19;98885.13;;;26.91;52.84
57574;BME280;68988;49.000;21.242;2023-06-22T04:41:44;98892.06;;;26.97;52.60
57574;BME280;68988;49.000;21.242;2023-06-22T04:44:10;98897.75;;;26.96;52.81
57574;BME280;68988;49.000;21.242;2023-06-22T04:46:36;98888.56;;;26.97;52.70
57574;BME280;68988;49.000;21.242;2023-06-22T04:49:09;98886.72;;;26.92;52.88
57574;BME280;68988;49.000;21.242;2023-06-22T04:51:42;98889.09;;;26.99;52.29
57574;BME280;68988;49.000;21.242;2023-06-22T04:54:08;98888.09;;;26.90;52.45
57574;BME280;68988;49.000;21.242;2023-06-22T04:56:34;98887.28;;;26.89;52.32
57574;BME280;68988;49.000;21.242;2023-06-22T04:59:00;98885.03;;;26.12;56.30
57574;BME280;68988;49.000;21.242;2023-06-22T05:01:25;98893.19;;;25.71;58.77
57574;BME280;68988;49.000;21.242;2023-06-22T05:03:51;98888.16;;;25.49;59.91
57574;BME280;68988;49.000;21.242;2023-06-22T05:06:23;98881.44;;;25.20;60.93
57574;BME280;68988;49.000;21.242;2023-06-22T05:08:53;98888.41;;;24.80;62.59
57574;BME280;68988;49.000;21.242;2023-06-22T05:11:22;98894.56;;;24.71;63.62
57574;BME280;68988;49.000;21.242;2023-06-22T05:13:48;98904.41;;;24.49;64.65
57574;BME280;68988;49.000;21.242;2023-06-22T05:16:13;98901.72;;;24.44;64.69
57574;BME280;68988;49.000;21.242;2023-06-22T05:18:38;98901.94;;;24.33;65.40
57574;BME280;68988;49.000;21.242;2023-06-22T05:21:04;98899.50;;;24.26;66.27
57574;BME280;68988;49.000;21.242;2023-06-22T05:23:29;98901.09;;;24.17;66.72
57574;BME280;68988;49.000;21.242;2023-06-22T05:25:54;98898.16;;;24.23;66.70
57574;BME280;68988;49.000;21.242;2023-06-22T05:28:22;98900.59;;;24.30;66.46
57574;BME280;68988;49.000;21.242;2023-06-22T05:30:48;98904.84;;;24.21;66.77
57574;BME280;68988;49.000;21.242;2023-06-22T05:33:13;98905.38;;;24.23;66.72
57574;BME280;68988;49.000;21.242;2023-06-22T05:35:39;98908.00;;;24.07;67.46
57574;BME280;68988;49.000;21.242;2023-06-22T05:38:04;98900.56;;;24.15;67.64
57574;BME280;68988;49.000;21.242;2023-06-22T05:40:29;98894.19;;;24.36;66.92
57574;BME280;68988;49.000;21.242;2023-06-22T05:42:55;98892.16;;;24.64;65.99
57574;BME280;68988;49.000;21.242;2023-06-22T05:45:20;98889.50;;;24.79;65.35
57574;BME280;68988;49.000;21.242;2023-06-22T05:47:45;98894.03;;;24.94;64.66
57574;BME280;68988;49.000;21.242;2023-06-22T05:50:11;98893.25;;;25.09;64.70
57574;BME280;68988;49.000;21.242;2023-06-22T05:52:36;98894.34;;;25.29;64.12
57574;BME280;68988;49.000;21.242;2023-06-22T05:55:02;98890.03;;;25.53;63.33
57574;BME280;68988;49.000;21.242;2023-06-22T05:57:27;98893.72;;;25.73;63.04
57574;BME280;68988;49.000;21.242;2023-06-22T05:59:53;98893.94;;;25.87;62.94
57574;BME280;68988;49.000;21.242;2023-06-22T06:02:19;98887.25;;;26.00;62.27
57574;BME280;68988;49.000;21.242;2023-06-22T06:04:44;98879.13;;;26.15;62.41
57574;BME280;68988;49.000;21.242;2023-06-22T06:07:10;98879.31;;;26.24;61.84
57574;BME280;68988;49.000;21.242;2023-06-22T06:09:35;98880.03;;;26.40;61.64
57574;BME280;68988;49.000;21.242;2023-06-22T06:12:01;98891.34;;;26.42;61.31
57574;BME280;68988;49.000;21.242;2023-06-22T06:14:28;98892.91;;;26.48;61.26
57574;BME280;68988;49.000;21.242;2023-06-22T06:16:53;98893.13;;;26.57;60.94
57574;BME280;68988;49.000;21.242;2023-06-22T06:19:18;98902.81;;;26.58;60.81
57574;BME280;68988;49.000;21.242;2023-06-22T06:21:44;98904.38;;;26.64;60.53
57574;BME280;68988;49.000;21.242;2023-06-22T06:24:09;98908.44;;;26.67;60.55
57574;BME280;68988;49.000;21.242;2023-06-22T06:26:35;98904.34;;;26.74;60.42
57574;BME280;68988;49.000;21.242;2023-06-22T06:29:01;98912.69;;;26.73;59.95
57574;BME280;68988;49.000;21.242;2023-06-22T06:31:28;98900.84;;;26.74;59.51
57574;BME280;68988;49.000;21.242;2023-06-22T06:33:54;98896.50;;;26.78;58.54
57574;BME280;68988;49.000;21.242;2023-06-22T06:36:20;98900.78;;;26.84;57.69
57574;BME280;68988;49.000;21.242;2023-06-22T06:38:45;98901.84;;;26.83;56.47
57574;BME280;68988;49.000;21.242;2023-06-22T06:41:13;98904.81;;;26.87;55.82
57574;BME280;68988;49.000;21.242;2023-06-22T06:43:39;98914.19;;;26.89;55.08
57574;BME280;68988;49.000;21.242;2023-06-22T06:46:04;98904.53;;;26.88;54.30
57574;BME280;68988;49.000;21.242;2023-06-22T06:48:30;98903.97;;;26.86;53.88
57574;BME280;68988;49.000;21.242;2023-06-22T06:50:55;98895.41;;;26.84;53.41
57574;BME280;68988;49.000;21.242;2023-06-22T06:53:20;98902.34;;;26.90;52.95
57574;BME280;68988;49.000;21.242;2023-06-22T06:55:46;98895.06;;;26.91;53.26
57574;BME280;68988;49.000;21.242;2023-06-22T06:58:11;98894.78;;;26.92;52.11
57574;BME280;68988;49.000;21.242;2023-06-22T07:00:38;98893.72;;;26.93;51.86
57574;BME280;68988;49.000;21.242;2023-06-22T07:03:04;98885.13;;;26.91;50.31
57574;BME280;68988;49.000;21.242;2023-06-22T07:05:30;98888.09;;;26.90;50.39
57574;BME280;68988;49.000;21.242;2023-06-22T07:07:55;98887.28;;;26.89;49.89
57574;BME280;68988;49.000;21.242;2023-06-22T07:10:20;98885.13;;;26.91;49.30
57574;BME280;68988;49.000;21.242;2023-06-22T07:12:46;98882.19;;;26.88;49.02
57574;BME280;68988;49.000;21.242;2023-06-22T07:15:11;98885.41;;;26.90;48.81
57574;BME280;68988;49.000;21.242;2023-06-22T07:17:38;98887.28;;;26.89;48.37
57574;BME280;68988;49.000;21.242;2023-06-22T07:20:08;98887.81;;;26.91;47.53
57574;BME280;68988;49.000;21.242;2023-06-22T07:22:36;98877.56;;;26.93;47.49
57574;BME280;68988;49.000;21.242;2023-06-22T07:25:01;98878.94;;;26.91;47.12
57574;BME280;68988;49.000;21.242;2023-06-22T07:27:30;98882.16;;;26.93;47.18
57574;BME280;68988;49.000;21.242;2023-06-22T07:30:01;98877.56;;;26.93;46.71
57574;BME280;68988;49.000;21.242;2023-06-22T07:32:26;98882.38;;;26.96;46.91
57574;BME280;68988;49.000;21.242;2023-06-22T07:34:53;98879.75;;;26.91;47.10
57574;BME280;68988;49.000;21.242;2023-06-22T07:37:18;98881.06;;;26.94;46.90
57574;BME280;68988;49.000;21.242;2023-06-22T07:39:44;98879.66;;;27.02;46.47
57574;BME280;68988;49.000;21.242;2023-06-22T07:42:09;98887.72;;;27.02;46.44
57574;BME280;68988;49.000;21.242;2023-06-22T07:44:35;98879.66;;;27.02;46.65
57574;BME280;68988;49.000;21.242;2023-06-22T07:47:01;98881.25;;;27.03;46.49
57574;BME280;68988;49.000;21.242;2023-06-22T07:49:27;98889.34;;;27.03;46.22
57574;BME280;68988;49.000;21.242;2023-06-22T07:51:53;98890.13;;;27.03;46.24
57574;BME280;68988;49.000;21.242;2023-06-22T07:54:18;98885.56;;;27.04;46.16
57574;BME280;68988;49.000;21.242;2023-06-22T07:56:43;98875.88;;;27.03;45.73
57574;BME280;68988;49.000;21.242;2023-06-22T07:59:09;98878.00;;;27.06;46.26
57574;BME280;68988;49.000;21.242;2023-06-22T08:01:35;98886.09;;;27.06;45.79
57574;BME280;68988;49.000;21.242;2023-06-22T08:04:00;98886.09;;;27.06;46.16
57574;BME280;68988;49.000;21.242;2023-06-22T08:06:25;98886.88;;;27.06;45.74
57574;BME280;68988;49.000;21.242;2023-06-22T08:08:51;98889.34;;;27.03;46.24
57574;BME280;68988;49.000;21.242;2023-06-22T08:11:17;98896.34;;;26.98;46.67
57574;BME280;68988;49.000;21.242;2023-06-22T08:13:43;98895.28;;;27.00;46.61
57574;BME280;68988;49.000;21.242;2023-06-22T08:16:08;98894.44;;;27.04;46.67
57574;BME280;68988;49.000;21.242;2023-06-22T08:18:34;98899.50;;;27.11;47.51
57574;BME280;68988;49.000;21.242;2023-06-22T08:20:59;98910.50;;;27.14;47.40
57574;BME280;68988;49.000;21.242;2023-06-22T08:23:24;98906.72;;;27.15;48.18
57574;BME280;68988;49.000;21.242;2023-06-22T08:25:50;98907.78;;;27.20;48.82
57574;BME280;68988;49.000;21.242;2023-06-22T08:28:16;98903.00;;;27.11;48.20
57574;BME280;68988;49.000;21.242;2023-06-22T08:30:41;98908.66;;;27.10;48.24
57574;BME280;68988;49.000;21.242;2023-06-22T08:33:06;98909.75;;;27.09;47.59
57574;BME280;68988;49.000;21.242;2023-06-22T08:35:32;98901.66;;;27.09;47.17
57574;BME280;68988;49.000;21.242;2023-06-22T08:37:57;98906.97;;;27.19;46.39
57574;BME280;68988;49.000;21.242;2023-06-22T08:40:23;98897.56;;;27.16;46.26
57574;BME280;68988;49.000;21.242;2023-06-22T08:42:49;98898.94;;;27.14;46.28
57574;BME280;68988;49.000;21.242;2023-06-22T08:45:15;98903.50;;;27.13;45.43
57574;BME280;68988;49.000;21.242;2023-06-22T08:47:41;98897.91;;;27.10;45.04
57574;BME280;68988;49.000;21.242;2023-06-22T08:50:11;98898.69;;;27.10;44.69
57574;BME280;68988;49.000;21.242;2023-06-22T08:52:37;98897.34;;;27.08;44.42
57574;BME280;68988;49.000;21.242;2023-06-22T08:55:04;98892.53;;;27.05;44.33
57574;BME280;68988;49.000;21.242;2023-06-22T08:57:29;98895.50;;;27.08;43.21
57574;BME280;68988;49.000;21.242;2023-06-22T08:59:56;98888.78;;;27.06;42.85
57574;BME280;68988;49.000;21.242;2023-06-22T09:02:24;98887.69;;;27.07;43.12
57574;BME280;68988;49.000;21.242;2023-06-22T09:04:49;98888.25;;;27.04;42.49
57574;BME280;68988;49.000;21.242;2023-06-22T09:07:21;98885.59;;;26.98;42.59
57574;BME280;68988;49.000;21.242;2023-06-22T09:09:48;98876.94;;;27.02;42.52
57574;BME280;68988;49.000;21.242;2023-06-22T09:12:14;98881.03;;;26.99;42.72
57574;BME280;68988;49.000;21.242;2023-06-22T09:14:39;98869.69;;;27.02;43.10
57574;BME280;68988;49.000;21.242;2023-06-22T09:17:05;98861.56;;;27.07;43.65
57574;BME280;68988;49.000;21.242;2023-06-22T09:19:30;98869.38;;;27.09;44.26
57574;BME280;68988;49.000;21.242;2023-06-22T09:21:55;98856.41;;;27.16;44.48
57574;BME280;68988;49.000;21.242;2023-06-22T09:24:21;98863.66;;;27.15;44.37
57574;BME280;68988;49.000;21.242;2023-06-22T09:26:46;98872.53;;;27.16;44.71
57574;BME280;68988;49.000;21.242;2023-06-22T09:29:11;98858.53;;;27.19;45.07
57574;BME280;68988;49.000;21.242;2023-06-22T09:31:37;98857.66;;;27.24;45.20
57574;BME280;68988;49.000;21.242;2023-06-22T09:34:02;98850.94;;;27.21;45.27
57574;BME280;68988;49.000;21.242;2023-06-22T09:36:27;98858.25;;;27.21;45.78
57574;BME280;68988;49.000;21.242;2023-06-22T09:38:53;98852.56;;;27.22;45.81
57574;BME280;68988;49.000;21.242;2023-06-22T09:41:23;98856.81;;;27.28;46.23
57574;BME280;68988;49.000;21.242;2023-06-22T09:43:49;98862.47;;;27.32;47.25
57574;BME280;68988;49.000;21.242;2023-06-22T09:46:17;98864.91;;;27.28;47.47
57574;BME280;68988;49.000;21.242;2023-06-22T09:48:43;98864.91;;;27.28;48.08
57574;BME280;68988;49.000;21.242;2023-06-22T09:51:08;98872.44;;;27.31;48.45
57574;BME280;68988;49.000;21.242;2023-06-22T09:53:34;98875.66;;;27.28;49.19
57574;BME280;68988;49.000;21.242;2023-06-22T09:56:03;98868.94;;;27.26;49.30
57574;BME280;68988;49.000;21.242;2023-06-22T09:58:28;98876.75;;;27.27;49.78
57574;BME280;68988;49.000;21.242;2023-06-22T10:00:54;98879.94;;;27.29;50.37
57574;BME280;68988;49.000;21.242;2023-06-22T10:03:20;98867.56;;;27.33;50.47
57574;BME280;68988;49.000;21.242;2023-06-22T10:05:45;98872.88;;;27.39;50.82
57574;BME280;68988;49.000;21.242;2023-06-22T10:08:10;98862.13;;;27.39;51.19
57574;BME280;68988;49.000;21.242;2023-06-22T10:10:36;98869.19;;;27.35;51.22
57574;BME280;68988;49.000;21.242;2023-06-22T10:13:09;98869.41;;;27.38;51.60
57574;BME280;68988;49.000;21.242;2023-06-22T10:15:38;98868.53;;;27.43;51.74
57574;BME280;68988;49.000;21.242;2023-06-22T10:18:04;98862.38;;;27.42;52.17
57574;BME280;68988;49.000;21.242;2023-06-22T10:20:29;98865.06;;;27.42;52.81
57574;BME280;68988;49.000;21.242;2023-06-22T10:22:55;98863.44;;;27.41;52.71
57574;BME280;68988;49.000;21.242;2023-06-22T10:25:21;98863.94;;;27.43;52.89
57574;BME280;68988;49.000;21.242;2023-06-22T10:27:47;98848.28;;;27.50;52.85
57574;BME280;68988;49.000;21.242;2023-06-22T10:30:13;98850.44;;;27.48;53.25
57574;BME280;68988;49.000;21.242;2023-06-22T10:32:39;98857.44;;;27.49;53.45
57574;BME280;68988;49.000;21.242;2023-06-22T10:35:06;98848.78;;;27.52;53.51
57574;BME280;68988;49.000;21.242;2023-06-22T10:37:31;98855.50;;;27.55;53.47
57574;BME280;68988;49.000;21.242;2023-06-22T10:39:56;98856.00;;;27.57;54.21
57574;BME280;68988;49.000;21.242;2023-06-22T10:42:22;98852.50;;;27.57;54.06
57574;BME280;68988;49.000;21.242;2023-06-22T10:44:47;98858.13;;;27.60;54.42
57574;BME280;68988;49.000;21.242;2023-06-22T10:47:12;98847.59;;;27.64;54.63
57574;BME280;68988;49.000;21.242;2023-06-22T10:49:38;98850.00;;;27.65;55.06
57574;BME280;68988;49.000;21.242;2023-06-22T10:52:06;98848.31;;;27.69;55.21
57574;BME280;68988;49.000;21.242;2023-06-22T10:54:32;98849.72;;;27.67;55.06
57574;BME280;68988;49.000;21.242;2023-06-22T10:56:58;98849.94;;;27.71;54.60
57574;BME280;68988;49.000;21.242;2023-06-22T10:59:24;98844.63;;;27.65;53.60
57574;BME280;68988;49.000;21.242;2023-06-22T11:01:51;98836.56;;;27.60;53.12
57574;BME280;68988;49.000;21.242;2023-06-22T11:04:16;98827.91;;;27.63;52.51
57574;BME280;68988;49.000;21.242;2023-06-22T11:06:43;98824.78;;;27.56;52.21
57574;BME280;68988;49.000;21.242;2023-06-22T11:09:08;98823.16;;;27.55;50.97
57574;BME280;68988;49.000;21.242;2023-06-22T11:11:34;98817.78;;;27.55;50.49
57574;BME280;68988;49.000;21.242;2023-06-22T11:13:59;98815.38;;;27.54;50.13
57574;BME280;68988;49.000;21.242;2023-06-22T11:16:25;98814.88;;;27.51;50.01
57574;BME280;68988;49.000;21.242;2023-06-22T11:18:50;98814.03;;;27.51;49.18
57574;BME280;68988;49.000;21.242;2023-06-22T11:21:15;98812.75;;;27.48;48.55
57574;BME280;68988;49.000;21.242;2023-06-22T11:23:42;98806.53;;;27.48;48.24
57574;BME280;68988;49.000;21.242;2023-06-22T11:26:07;98815.72;;;27.47;47.62
57574;BME280;68988;49.000;21.242;2023-06-22T11:28:33;98821.13;;;27.47;47.31
57574;BME280;68988;49.000;21.242;2023-06-22T11:30:58;98821.69;;;27.44;46.78
57574;BME280;68988;49.000;21.242;2023-06-22T11:33:24;98827.66;;;27.41;46.64
57574;BME280;68988;49.000;21.242;2023-06-22T11:35:49;98834.63;;;27.42;46.13
57574;BME280;68988;49.000;21.242;2023-06-22T11:38:14;98821.69;;;27.44;46.06
57574;BME280;68988;49.000;21.242;2023-06-22T11:40:40;98817.44;;;27.38;45.94
57574;BME280;68988;49.000;21.242;2023-06-22T11:43:05;98819.59;;;27.36;45.27
57574;BME280;68988;49.000;21.242;2023-06-22T11:45:30;98822.53;;;27.39;45.35
57574;BME280;68988;49.000;21.242;2023-06-22T11:47:56;98816.41;;;27.33;44.95
57574;BME280;68988;49.000;21.242;2023-06-22T11:50:21;98813.72;;;27.33;44.42
57574;BME280;68988;49.000;21.242;2023-06-22T11:52:46;98802.94;;;27.33;44.06
57574;BME280;68988;49.000;21.242;2023-06-22T11:55:12;98807.25;;;27.35;44.21
57574;BME280;68988;49.000;21.242;2023-06-22T11:57:38;98809.94;;;27.35;43.45
57574;BME280;68988;49.000;21.242;2023-06-22T12:00:16;98808.81;;;27.36;43.50
57574;BME280;68988;49.000;21.242;2023-06-22T12:02:44;98812.09;;;27.32;43.52
57574;BME280;68988;49.000;21.242;2023-06-22T12:05:10;98804.00;;;27.32;43.47
57574;BME280;68988;49.000;21.242;2023-06-22T12:07:36;98806.97;;;27.31;43.17
57574;BME280;68988;49.000;21.242;2023-06-22T12:10:02;98795.97;;;27.27;43.12
57574;BME280;68988;49.000;21.242;2023-06-22T12:12:28;98795.19;;;27.27;42.58
57574;BME280;68988;49.000;21.242;2023-06-22T12:14:53;98794.84;;;27.33;42.90
57574;BME280;68988;49.000;21.242;2023-06-22T12:17:18;98796.47;;;27.35;42.52
57574;BME280;68988;49.000;21.242;2023-06-22T12:19:44;98785.41;;;27.31;42.37
57574;BME280;68988;49.000;21.242;2023-06-22T12:22:09;98781.44;;;27.28;42.33
57574;BME280;68988;49.000;21.242;2023-06-22T12:24:34;98785.19;;;27.27;41.82
57574;BME280;68988;49.000;21.242;2023-06-22T12:27:00;98775.22;;;27.28;41.54
57574;BME280;68988;49.000;21.242;2023-06-22T12:29:25;98776.84;;;27.29;41.50
57574;BME280;68988;49.000;21.242;2023-06-22T12:31:50;98765.56;;;27.27;41.03
57574;BME280;68988;49.000;21.242;2023-06-22T12:34:17;98764.16;;;27.35;41.26
57574;BME280;68988;49.000;21.242;2023-06-22T12:36:42;98762.53;;;27.33;41.20
57574;BME280;68988;49.000;21.242;2023-06-22T12:39:08;98770.69;;;27.23;41.05
57574;BME280;68988;49.000;21.242;2023-06-22T12:41:33;98775.50;;;27.26;41.15
57574;BME280;68988;49.000;21.242;2023-06-22T12:43:58;98773.94;;;27.25;40.98
57574;BME280;68988;49.000;21.242;2023-06-22T12:46:24;98775.50;;;27.31;40.78
57574;BME280;68988;49.000;21.242;2023-06-22T12:48:49;98783.88;;;27.25;40.77
57574;BME280;68988;49.000;21.242;2023-06-22T12:51:20;98778.44;;;27.30;40.52